Latest Coastal Weather Observations for Rottnest Island

IDW60701

Issued at 1:42 pm WST Saturday 20 December 2014 (issued every 10 minutes, with the page automatically refreshed every 10 minutes)

About coastal observations | Map of coastal stations | Coastal observations for WA | Marine services | Other Formats
Station Details ID: 009193 Name: ROTTNEST ISLAND Lat: -32.01 Lon: 115.50 Height: 43.1 m
Data from the previous 72 hours. | See also: Recent months at Rottnest Island
Date/Time
WST
Temp

°C
Wind Pressure Rain
since 9am
mm
Weather Cloud Vis
km
Sea
Height
m
Swell
Dir
 
Speed
knots
Gust
knots
hPa Trend Height
m
Period
s
Dir
20/01:30pm 22.3 SW 26 33 1009.6 - 0.0 - - - - - - -
20/01:00pm 22.9 SSW 24 30 1009.6 - 0.0 - - - - - - -
20/12:30pm 22.2 SSW 24 30 1009.7 - 0.0 - - - - - - -
20/12:00pm 22.4 SSW 25 32 1009.5 - 0.0 - - - - - - -
20/11:30am 23.3 SSW 26 33 1009.5 - 0.0 - - - - - - -
20/11:00am 21.9 SSW 23 31 1009.5 - 0.0 - - - - - - -
20/10:30am 21.9 SSW 26 32 1009.3 - 0.0 - - - - - - -
20/10:00am 21.2 SSW 28 35 1009.0 - 0.0 - - - - - - -
20/09:30am 20.6 SSW 26 35 1008.6 - 0.0 - - - - - - -
20/09:00am 21.2 SSW 26 32 1008.5 - 0.0 - - - - - - -
20/08:30am 21.1 SSW 26 32 1008.3 - 0.0 - - - - - - -
20/08:00am 20.7 SSW 23 32 1008.2 - 0.0 - - - - - - -
20/07:30am 20.5 SSW 24 30 1008.0 - 0.0 - - - - - - -
20/07:00am 20.0 SSW 25 32 1007.6 - 0.0 - - - - - - -
20/06:30am 20.0 SSW 24 30 1007.4 - 0.0 - - - - - - -
20/06:10am 19.7 SSW 23 33 1007.1 - 0.0 - - - - - - -
20/06:00am 19.8 SSW 23 30 1007.0 - 0.0 - - - - - - -
20/05:30am 19.6 SSW 20 27 1006.7 - 0.0 - - - - - - -
20/05:00am 19.8 SSW 20 27 1006.4 - 0.0 - - - - - - -
20/04:30am 20.0 SSW 16 21 1006.0 - 0.0 - - - - - - -
20/04:00am 20.1 SSW 16 19 1005.8 - 0.0 - - - - - - -
20/03:30am 20.1 SSW 15 19 1005.7 - 0.0 - - - - - - -
20/03:00am 20.2 SSW 15 19 1005.8 - 0.0 - - - - - - -
20/02:30am 20.4 S 16 19 1005.6 - 0.0 - - - - - - -
20/02:00am 20.4 S 16 20 1005.8 - 0.0 - - - - - - -
20/01:30am 20.5 S 16 19 1006.1 - 0.0 - - - - - - -
20/01:00am 20.4 S 17 22 1006.4 - 0.0 - - - - - - -
20/12:30am 20.3 S 17 24 1006.8 - 0.0 - - - - - - -
20/12:10am 20.3 S 15 25 1006.7 - 0.0 - - - - - - -
20/12:00am 20.3 S 20 25 1007.2 - 0.0 - - - - - - -
 
Date/Time
WST
Temp

°C
Wind Pressure Rain
since 9am
mm
Weather Cloud Vis
km
Sea
Height
m
Swell
Dir
 
Speed
knots
Gust
knots
hPa Trend Height
m
Period
s
Dir
19/11:30pm 20.5 S 19 24 1007.5 - 0.0 - - - - - - -
19/11:00pm 20.9 S 22 29 1007.6 - 0.0 - - - - - - -
19/10:30pm 21.2 S 24 29 1007.9 - 0.0 - - - - - - -
19/10:00pm 21.4 SSW 26 32 1007.5 - 0.0 - - - - - - -
19/09:30pm 21.7 SSW 26 31 1007.4 - 0.0 - - - - - - -
19/09:00pm 21.8 SSW 26 32 1007.4 - 0.0 - - - - - - -
19/08:30pm 21.8 SSW 25 31 1007.1 - 0.0 - - - - - - -
19/08:00pm 21.9 SSW 25 31 1006.8 - 0.0 - - - - - - -
19/07:30pm 21.6 SSW 24 30 1006.5 - 0.0 - - - - - - -
19/07:00pm 21.8 SSW 26 32 1006.2 - 0.0 - - - - - - -
19/06:30pm 21.9 SSW 23 29 1006.2 - 0.0 - - - - - - -
19/06:00pm 22.4 SSW 23 28 1006.2 - 0.0 - - - - - - -
19/05:30pm 23.1 SSW 24 30 1006.2 - 0.0 - - - - - - -
19/05:00pm 23.8 SSW 21 27 1006.1 - 0.0 - - - - - - -
19/04:30pm 23.9 SSW 21 27 1006.5 - 0.0 - - - - - - -
19/04:00pm 24.3 SSW 19 24 1006.9 - 0.0 - - - - - - -
19/03:30pm 24.6 SSW 19 23 1007.4 - 0.0 - - - - - - -
19/03:00pm 23.6 SSW 20 25 1008.2 - 0.0 - - - - - - -
19/02:30pm 23.6 SSW 20 26 1008.6 - 0.0 - - - - - - -
19/02:00pm 24.5 SSW 19 25 1009.1 - 0.0 - - - - - - -
19/01:30pm 24.0 SSW 20 25 1009.5 - 0.0 - - - - - - -
19/01:00pm 24.9 SSW 19 23 1010.1 - 0.0 - - - - - - -
19/12:30pm 24.3 SSW 17 21 1010.5 - 0.0 - - - - - - -
19/12:00pm 26.8 SSW 13 16 1010.8 - 0.0 - - - - - - -
19/11:30am 27.7 SSW 11 14 1011.2 - 0.0 - - - - - - -
19/11:00am 29.3 SSE 7 9 1011.3 - 0.0 - - - - - - -
19/10:30am 28.8 SE 9 12 1011.5 - 0.0 - - - - - - -
19/10:00am 28.3 SE 8 12 1011.9 - 0.0 - - - - - - -
19/09:30am 26.3 SSE 9 11 1012.1 - 0.0 - - - - - - -
19/09:00am 26.2 SE 9 11 1012.3 - 0.0 - - - - - - -
19/08:30am 25.4 ESE 9 14 1012.6 - 0.0 - - - - - - -
19/08:00am 23.3 SE 9 12 1012.9 - 0.0 - - - - - - -
19/07:30am 23.5 E 11 15 1013.1 - 0.0 - - - - - - -
19/07:00am 22.3 E 8 13 1013.3 - 0.0 - - - - - - -
19/06:30am 21.4 ESE 8 13 1013.1 - 0.0 - - - - - - -
19/06:00am 20.5 ESE 9 12 1012.9 - 0.0 - - - - - - -
19/05:30am 19.6 ESE 8 11 1012.8 - 0.0 - - - - - - -
19/05:00am 19.4 SE 8 12 1012.8 - 0.0 - - - - - - -
19/04:30am 19.6 ESE 10 14 1012.5 - 0.0 - - - - - - -
19/04:00am 19.5 SE 11 14 1012.4 - 0.0 - - - - - - -
19/03:30am 19.4 SE 12 15 1012.2 - 0.0 - - - - - - -
19/03:00am 19.0 SE 12 15 1012.3 - 0.0 - - - - - - -
19/02:30am 19.4 SE 12 15 1012.4 - 0.0 - - - - - - -
19/02:00am 19.4 SE 15 18 1012.4 - 0.0 - - - - - - -
19/01:30am 19.3 SSE 14 19 1012.7 - 0.0 - - - - - - -
19/01:00am 19.4 SSE 19 24 1013.1 - 0.0 - - - - - - -
19/12:30am 19.3 SSE 18 23 1013.2 - 0.0 - - - - - - -
19/12:00am 19.4 SSE 19 23 1013.3 - 0.0 - - - - - - -
 
Date/Time
WST
Temp

°C
Wind Pressure Rain
since 9am
mm
Weather Cloud Vis
km
Sea
Height
m
Swell
Dir
 
Speed
knots
Gust
knots
hPa Trend Height
m
Period
s
Dir
18/11:30pm 19.6 S 20 24 1013.5 - 0.0 - - - - - - -
18/11:00pm 19.6 S 19 24 1013.8 - 0.0 - - - - - - -
18/10:30pm 19.6 S 19 22 1014.2 - 0.0 - - - - - - -
18/10:00pm 19.5 S 20 25 1014.4 - 0.0 - - - - - - -
18/09:30pm 19.6 S 19 23 1014.5 - 0.0 - - - - - - -
18/09:00pm 19.5 S 20 23 1014.5 - 0.0 - - - - - - -
18/08:30pm 19.5 S 18 21 1014.5 - 0.0 - - - - - - -
18/08:00pm 19.1 S 20 25 1014.2 - 0.0 - - - - - - -
18/07:30pm 19.1 S 20 25 1014.2 - 0.0 - - - - - - -
18/07:00pm 19.4 S 20 25 1013.9 - 0.0 - - - - - - -
18/06:30pm 19.8 S 21 27 1013.7 - 0.0 - - - - - - -
18/06:00pm 20.1 S 23 29 1013.6 - 0.0 - - - - - - -
18/05:30pm 20.5 S 23 29 1013.5 - 0.0 - - - - - - -
18/05:00pm 21.0 SSW 23 28 1013.5 - 0.0 - - - - - - -
18/04:30pm 20.5 SSW 23 28 1013.5 - 0.0 - - - - - - -
18/04:00pm 21.2 SSW 21 26 1013.9 - 0.0 - - - - - - -
18/03:30pm 21.1 SSW 21 25 1014.1 - 0.0 - - - - - - -
18/03:00pm 21.6 SSW 19 23 1014.5 - 0.0 - - - - - - -
18/02:30pm 22.2 SSW 20 23 1014.6 - 0.0 - - - - - - -
18/02:00pm 22.3 SSW 19 22 1014.9 - 0.0 - - - - - - -
18/01:30pm 23.2 SW 17 21 1015.3 - 0.0 - - - - - - -
18/01:00pm 21.9 SSW 16 19 1015.6 - 0.0 - - - - - - -
18/12:30pm 22.9 SSW 15 17 1015.8 - 0.0 - - - - - - -
18/12:00pm 22.7 S 11 15 1016.3 - 0.0 - - - - - - -
18/11:30am 22.7 SSE 10 13 1016.5 - 0.0 - - - - - - -
18/11:00am 22.5 SSE 11 13 1016.7 - 0.0 - - - - - - -
18/10:30am 22.9 SE 11 14 1016.9 - 0.0 - - - - - - -
18/10:00am 23.2 ESE 10 14 1017.0 - 0.0 - - - - - - -
18/09:30am 21.7 E 10 15 1017.1 - 0.0 - - - - - - -
18/09:00am 20.3 ENE 11 16 1017.2 - 0.0 - - - - - - -
18/08:30am 19.4 ENE 12 17 1017.2 - 0.0 - - - - - - -
18/08:00am 19.1 E 11 17 1017.1 - 0.0 - - - - - - -
18/07:30am 18.4 E 12 17 1016.9 - 0.0 - - - - - - -
18/07:00am 17.7 E 13 19 1016.8 - 0.0 - - - - - - -
18/06:30am 17.4 E 10 16 1016.3 - 0.0 - - - - - - -
18/06:00am 17.0 ESE 11 15 1016.1 - 0.0 - - - - - - -
18/05:30am 16.5 ESE 11 15 1015.8 - 0.0 - - - - - - -
18/05:00am 16.5 ESE 12 17 1015.4 - 0.0 - - - - - - -
18/04:30am 16.6 SE 13 19 1014.9 - 0.0 - - - - - - -
18/04:00am 16.9 SE 15 20 1014.6 - 0.0 - - - - - - -
18/03:30am 17.1 SE 17 21 1014.2 - 0.0 - - - - - - -
18/03:00am 17.5 SE 17 23 1013.9 - 0.0 - - - - - - -
18/02:30am 17.7 SSE 17 23 1013.6 - 0.0 - - - - - - -
18/02:00am 17.8 SSE 21 26 1013.4 - 0.0 - - - - - - -
18/01:30am 17.9 SSE 22 27 1013.4 - 0.0 - - - - - - -
18/01:00am 18.0 SSE 24 28 1013.5 - 0.0 - - - - - - -
18/12:30am 18.2 S 26 30 1013.6 - 0.0 - - - - - - -
18/12:00am 18.4 SSE 25 31 1013.5 - 0.0 - - - - - - -
 
Date/Time
WST
Temp

°C
Wind Pressure Rain
since 9am
mm
Weather Cloud Vis
km
Sea
Height
m
Swell
Dir
 
Speed
knots
Gust
knots
hPa Trend Height
m
Period
s
Dir
17/11:30pm 18.8 S 28 34 1013.2 - 0.0 - - - - - - -
17/11:00pm 18.8 S 29 37 1013.0 - 0.0 - - - - - - -
17/10:30pm 18.9 S 29 35 1013.1 - 0.0 - - - - - - -
17/10:00pm 18.8 S 28 34 1013.1 - 0.0 - - - - - - -
17/09:30pm 19.0 S 27 34 1013.1 - 0.0 - - - - - - -
17/09:00pm 18.7 S 28 33 1012.8 - 0.0 - - - - - - -
17/08:30pm 18.5 S 26 31 1013.1 - 0.0 - - - - - - -
17/08:00pm 18.4 SSW 25 33 1013.0 - 0.0 - - - - - - -
17/07:30pm 18.3 SSW 25 32 1012.8 - 0.0 - - - - - - -
17/07:00pm 18.4 SSW 25 31 1012.6 - 0.0 - - - - - - -
17/06:30pm 18.6 SSW 24 31 1012.6 - 0.0 - - - - - - -
17/06:00pm 18.8 SSW 25 30 1012.5 - 0.0 - - - - - - -
17/05:30pm 19.5 SSW 24 31 1012.2 - 0.0 - - - - - - -
17/05:00pm 19.4 SSW 26 32 1012.0 - 0.0 - - - - - - -
17/04:30pm 20.2 SSW 25 30 1012.0 - 0.0 - - - - - - -
17/04:00pm 19.7 SSW 23 28 1012.0 - 0.0 - - - - - - -
17/03:30pm 20.1 SSW 23 29 1012.1 - 0.0 - - - - - - -
17/03:00pm 19.8 SSW 24 28 1012.1 - 0.0 - - - - - - -
17/02:30pm 19.8 SSW 22 27 1012.3 - 0.0 - - - - - - -
17/02:00pm 20.1 SSW 22 27 1012.6 - 0.0 - - - - - - -

Other Formats:

Comma delimited format used in spreadsheet applications
http://www.bom.gov.au/fwo/IDW60701/IDW60701.94602.axf

JavaScript Object Notation format (JSON) in row-major order
http://www.bom.gov.au/fwo/IDW60701/IDW60701.94602.json